Time;durP1;ratioP1;P1;durP2;ratioP2;P2;SDS_P1;SDS_P2;PMS_P1;PMS_P2;Temp;Humidity;BMP_temperature;BMP_pressure;BME280_temperature;BME280_humidity;BME280_pressure;Samples;Min_cycle;Max_cycle;Signal;HPM_P1;HPM_P2
2022/01/04 00:00:41;;;;;;;25.02;3.95;;;;;;;;;;4994772;28;20045;-27
2022/01/04 00:03:07;;;;;;;25.15;3.63;;;;;;;;;;4994433;28;20050;-24
2022/01/04 00:05:33;;;;;;;20.30;3.53;;;;;;;;;;4994761;28;20030;-27
2022/01/04 00:08:00;;;;;;;18.05;4.32;;;;;;;;;;4995196;28;20034;-24
2022/01/04 00:10:28;;;;;;;23.70;3.58;;;;;;;;;;4994975;28;20050;-26
2022/01/04 00:15:42;;;;;;;15.77;2.67;;;;;;;;;;4998309;28;20131;-26
2022/01/04 00:18:09;;;;;;;24.27;2.97;;;;;;;;;;4997730;28;20030;-26
2022/01/04 00:20:35;;;;;;;21.85;2.97;;;;;;;;;;4998266;28;20097;-26
2022/01/04 00:23:01;;;;;;;18.83;3.38;;;;;;;;;;4998118;28;20027;-27
2022/01/04 00:25:27;;;;;;;27.70;4.47;;;;;;;;;;4998197;28;20053;-27
2022/01/04 00:27:53;;;;;;;10.68;2.50;;;;;;;;;;4998201;28;20532;-27
2022/01/04 00:30:20;;;;;;;17.05;3.70;;;;;;;;;;4998602;28;20026;-27
2022/01/04 00:32:46;;;;;;;9.18;2.63;;;;;;;;;;4997960;28;20085;-27
2022/01/04 00:35:12;;;;;;;18.92;3.55;;;;;;;;;;4997885;28;20039;-27
2022/01/04 00:37:38;;;;;;;16.27;3.10;;;;;;;;;;4997961;28;20038;-27
2022/01/04 00:40:05;;;;;;;18.20;4.57;;;;;;;;;;4998146;28;20095;-26
2022/01/04 00:42:32;;;;;;;10.38;3.10;;;;;;;;;;4997844;28;20022;-27
2022/01/04 00:44:58;;;;;;;18.17;3.28;;;;;;;;;;4997828;28;20034;-27
2022/01/04 00:47:38;;;;;;;22.25;3.95;;;;;;;;;;4998025;28;20066;-27
2022/01/04 00:50:04;;;;;;;16.83;3.83;;;;;;;;;;4998017;28;20034;-27
2022/01/04 00:52:31;;;;;;;22.15;3.50;;;;;;;;;;4997609;28;20037;-27
2022/01/04 00:54:57;;;;;;;21.33;2.88;;;;;;;;;;4997545;28;20022;-27
2022/01/04 00:57:23;;;;;;;15.25;2.88;;;;;;;;;;4998081;28;20026;-27
2022/01/04 00:59:49;;;;;;;18.95;3.28;;;;;;;;;;4998030;28;20349;-27
2022/01/04 01:02:15;;;;;;;16.17;3.10;;;;;;;;;;4997643;28;20033;-27
2022/01/04 01:04:42;;;;;;;12.70;3.28;;;;;;;;;;4998259;28;20412;-27
2022/01/04 01:07:08;;;;;;;27.60;3.92;;;;;;;;;;4998446;28;20369;-27
2022/01/04 01:09:41;;;;;;;10.00;3.88;;;;;;;;;;4997610;28;20034;-26
2022/01/04 01:12:09;;;;;;;10.45;3.47;;;;;;;;;;4997538;28;20112;-27
2022/01/04 01:14:35;;;;;;;15.70;3.15;;;;;;;;;;4997124;28;20109;-27
2022/01/04 01:17:02;;;;;;;15.70;2.72;;;;;;;;;;4997202;28;20022;-26
2022/01/04 01:19:29;;;;;;;15.07;2.78;;;;;;;;;;4997095;28;20097;-27
2022/01/04 01:21:55;;;;;;;14.23;2.67;;;;;;;;;;4997033;28;20091;-27
2022/01/04 01:24:21;;;;;;;18.45;3.22;;;;;;;;;;4996336;28;20057;-27
2022/01/04 01:26:47;;;;;;;25.95;4.57;;;;;;;;;;4997014;28;20038;-27
2022/01/04 01:29:13;;;;;;;14.55;3.08;;;;;;;;;;4996980;28;20027;-27
2022/01/04 01:31:40;;;;;;;19.73;3.90;;;;;;;;;;4996974;28;20026;-27
2022/01/04 01:34:06;;;;;;;12.27;3.40;;;;;;;;;;4996753;28;20031;-27
2022/01/04 01:36:32;;;;;;;16.42;3.85;;;;;;;;;;4997118;28;20415;-27
2022/01/04 01:38:58;;;;;;;10.57;2.70;;;;;;;;;;4997077;28;20041;-27
2022/01/04 01:41:24;;;;;;;19.40;3.08;;;;;;;;;;4996764;28;20109;-27
2022/01/04 01:43:51;;;;;;;21.15;2.90;;;;;;;;;;4996898;28;20116;-27
2022/01/04 01:46:17;;;;;;;10.45;2.72;;;;;;;;;;4997196;28;20046;-27
2022/01/04 01:48:44;;;;;;;11.27;2.50;;;;;;;;;;4996526;28;20034;-27
2022/01/04 01:51:10;;;;;;;13.40;3.63;;;;;;;;;;4996570;28;20026;-27
2022/01/04 01:53:36;;;;;;;11.88;2.67;;;;;;;;;;4996432;28;20061;-27
2022/01/04 01:56:03;;;;;;;13.15;3.45;;;;;;;;;;4996311;28;20092;-27
2022/01/04 01:58:29;;;;;;;7.88;2.38;;;;;;;;;;4996615;28;20410;-27
2022/01/04 02:00:55;;;;;;;16.27;3.50;;;;;;;;;;4996372;28;20042;-27
2022/01/04 02:03:22;;;;;;;14.98;2.78;;;;;;;;;;4995107;28;20453;-26
2022/01/04 02:05:49;;;;;;;9.05;2.80;;;;;;;;;;4996245;28;20121;-26
2022/01/04 02:08:16;;;;;;;15.93;3.22;;;;;;;;;;4996234;28;20034;-27
2022/01/04 02:10:42;;;;;;;6.55;1.95;;;;;;;;;;4996690;28;20061;-26
2022/01/04 02:13:09;;;;;;;26.20;3.05;;;;;;;;;;4996112;28;20050;-26
2022/01/04 02:15:35;;;;;;;11.70;3.42;;;;;;;;;;4996303;28;20089;-27
2022/01/04 02:18:01;;;;;;;13.00;3.00;;;;;;;;;;4996335;28;20069;-26
2022/01/04 02:20:28;;;;;;;12.73;3.75;;;;;;;;;;4996295;28;20093;-27
2022/01/04 02:22:55;;;;;;;13.70;2.97;;;;;;;;;;4996158;28;20035;-27
2022/01/04 02:25:21;;;;;;;10.38;2.58;;;;;;;;;;4996211;28;20038;-27
2022/01/04 02:27:48;;;;;;;13.07;3.20;;;;;;;;;;4996468;28;20101;-26
2022/01/04 02:30:15;;;;;;;14.13;2.53;;;;;;;;;;4995859;28;20030;-27
2022/01/04 02:32:43;;;;;;;16.20;2.92;;;;;;;;;;4995754;28;20026;-26
2022/01/04 02:35:09;;;;;;;10.70;2.80;;;;;;;;;;4996005;28;20117;-26
2022/01/04 02:37:36;;;;;;;20.63;4.63;;;;;;;;;;4996006;28;20034;-27
2022/01/04 02:40:02;;;;;;;22.98;4.72;;;;;;;;;;4995717;28;20093;-26
2022/01/04 02:42:29;;;;;;;14.82;4.15;;;;;;;;;;4995600;28;20113;-27
2022/01/04 02:44:55;;;;;;;12.43;2.60;;;;;;;;;;4995921;28;20034;-26
2022/01/04 02:47:21;;;;;;;20.48;3.40;;;;;;;;;;4995861;28;20065;-27
2022/01/04 02:49:48;;;;;;;8.75;2.97;;;;;;;;;;4995808;28;20461;-27
2022/01/04 02:52:14;;;;;;;13.23;2.40;;;;;;;;;;4995418;28;20031;-27
2022/01/04 02:54:41;;;;;;;17.80;3.90;;;;;;;;;;4995642;28;20361;-27
2022/01/04 02:57:07;;;;;;;11.30;2.58;;;;;;;;;;4995658;28;20027;-27
2022/01/04 02:59:33;;;;;;;11.80;4.45;;;;;;;;;;4995350;28;20161;-27
2022/01/04 03:01:59;;;;;;;8.52;2.95;;;;;;;;;;4995322;28;20030;-27
2022/01/04 03:04:26;;;;;;;7.03;2.88;;;;;;;;;;4995241;28;20359;-27
2022/01/04 03:06:52;;;;;;;7.25;2.45;;;;;;;;;;4995844;28;20057;-27
2022/01/04 03:09:18;;;;;;;17.27;2.85;;;;;;;;;;4995782;28;20027;-27
2022/01/04 03:11:44;;;;;;;10.20;3.15;;;;;;;;;;4995156;28;20035;-27
2022/01/04 03:14:11;;;;;;;14.77;2.58;;;;;;;;;;4995114;28;20093;-27
2022/01/04 03:16:37;;;;;;;12.80;2.83;;;;;;;;;;4995157;28;20030;-27
2022/01/04 03:19:06;;;;;;;12.88;2.80;;;;;;;;;;4995130;28;20069;-26
2022/01/04 03:21:35;;;;;;;16.42;3.17;;;;;;;;;;4995035;28;20022;-27
2022/01/04 03:24:02;;;;;;;12.40;2.92;;;;;;;;;;4995073;28;20026;-26
2022/01/04 03:26:28;;;;;;;13.60;3.00;;;;;;;;;;4995039;28;20057;-26
2022/01/04 03:28:54;;;;;;;7.10;2.45;;;;;;;;;;4995335;28;20331;-27
2022/01/04 03:31:20;;;;;;;13.10;2.78;;;;;;;;;;4994965;28;20030;-26
2022/01/04 03:33:47;;;;;;;14.95;2.97;;;;;;;;;;4994971;28;20480;-27
2022/01/04 03:36:14;;;;;;;7.72;2.78;;;;;;;;;;4994295;28;20492;-27
2022/01/04 03:38:41;;;;;;;11.30;3.17;;;;;;;;;;4995221;28;20023;-27
2022/01/04 03:41:08;;;;;;;10.93;2.40;;;;;;;;;;4995183;28;20030;-27
2022/01/04 03:43:37;;;;;;;9.23;2.05;;;;;;;;;;4994825;28;20026;-27
2022/01/04 03:46:03;;;;;;;11.98;2.70;;;;;;;;;;4995159;28;20038;-27
2022/01/04 03:48:29;;;;;;;10.43;2.00;;;;;;;;;;4995217;28;20034;-27
2022/01/04 03:50:55;;;;;;;14.52;3.38;;;;;;;;;;4998821;28;20057;-26
2022/01/04 03:53:21;;;;;;;9.63;2.47;;;;;;;;;;4999194;28;20043;-26
2022/01/04 03:55:48;;;;;;;10.25;2.47;;;;;;;;;;4998595;28;20034;-27
2022/01/04 03:58:14;;;;;;;10.02;3.88;;;;;;;;;;4998626;28;20022;-27
2022/01/04 04:00:40;;;;;;;14.65;3.05;;;;;;;;;;4998589;28;20088;-26
2022/01/04 04:03:06;;;;;;;13.02;2.35;;;;;;;;;;4998262;28;20053;-27
2022/01/04 04:05:32;;;;;;;8.85;2.30;;;;;;;;;;4998977;28;20030;-27
2022/01/04 04:07:59;;;;;;;7.60;1.63;;;;;;;;;;4997477;28;20027;-26
2022/01/04 04:10:25;;;;;;;10.65;2.35;;;;;;;;;;4998873;28;20061;-26
2022/01/04 04:12:51;;;;;;;5.63;1.77;;;;;;;;;;4998586;28;20117;-27
2022/01/04 04:15:17;;;;;;;9.77;2.55;;;;;;;;;;4998217;28;20030;-26
2022/01/04 04:17:46;;;;;;;6.55;2.40;;;;;;;;;;4998689;28;20069;-27
2022/01/04 04:20:12;;;;;;;9.90;2.30;;;;;;;;;;4998190;28;20065;-27
2022/01/04 04:22:38;;;;;;;11.70;2.00;;;;;;;;;;4998074;28;20022;-27
2022/01/04 04:25:05;;;;;;;15.35;3.60;;;;;;;;;;4998142;28;20101;-26
2022/01/04 04:27:31;;;;;;;8.23;1.98;;;;;;;;;;4998188;28;20044;-27
2022/01/04 04:29:57;;;;;;;6.88;2.88;;;;;;;;;;4998038;28;20065;-27
2022/01/04 04:32:23;;;;;;;13.13;2.70;;;;;;;;;;4997921;28;20068;-27
2022/01/04 04:34:50;;;;;;;6.50;2.45;;;;;;;;;;4997835;28;20062;-27
2022/01/04 04:37:16;;;;;;;12.40;2.58;;;;;;;;;;4998125;28;20022;-27
2022/01/04 04:39:42;;;;;;;19.42;2.92;;;;;;;;;;4998339;28;20097;-27
2022/01/04 04:42:08;;;;;;;14.88;2.75;;;;;;;;;;4997915;28;20350;-26
2022/01/04 04:44:35;;;;;;;8.45;2.17;;;;;;;;;;4997632;28;20033;-27
2022/01/04 04:47:01;;;;;;;7.55;2.00;;;;;;;;;;4997679;28;20085;-27
2022/01/04 04:49:27;;;;;;;9.15;2.13;;;;;;;;;;4997861;28;20085;-27
2022/01/04 04:51:59;;;;;;;12.18;3.72;;;;;;;;;;4997687;28;20031;-27
2022/01/04 04:54:26;;;;;;;11.02;2.65;;;;;;;;;;4997420;28;20480;-27
2022/01/04 04:56:52;;;;;;;9.23;2.35;;;;;;;;;;4997468;28;20030;-27
2022/01/04 04:59:18;;;;;;;6.25;2.08;;;;;;;;;;4996964;28;20062;-27
2022/01/04 05:01:44;;;;;;;5.00;2.00;;;;;;;;;;4997233;28;20026;-27
2022/01/04 05:04:10;;;;;;;18.63;2.97;;;;;;;;;;4997482;28;20117;-27
2022/01/04 05:06:36;;;;;;;6.38;1.90;;;;;;;;;;4997341;28;20030;-26
2022/01/04 05:09:03;;;;;;;9.25;2.22;;;;;;;;;;4997103;28;20042;-27
2022/01/04 05:11:29;;;;;;;6.30;2.05;;;;;;;;;;4997020;28;20022;-26
2022/01/04 05:13:56;;;;;;;8.45;2.25;;;;;;;;;;4996951;28;20022;-27
2022/01/04 05:16:22;;;;;;;5.82;2.00;;;;;;;;;;4996965;28;20031;-26
2022/01/04 05:18:48;;;;;;;10.68;2.60;;;;;;;;;;4997376;28;20045;-27
2022/01/04 05:21:14;;;;;;;7.20;1.80;;;;;;;;;;4997285;28;20026;-27
2022/01/04 05:23:40;;;;;;;12.27;1.73;;;;;;;;;;4997107;28;20057;-27
2022/01/04 05:26:07;;;;;;;5.45;1.98;;;;;;;;;;4996878;28;20084;-26
2022/01/04 05:28:33;;;;;;;6.15;2.90;;;;;;;;;;4996847;28;20034;-27
2022/01/04 05:31:00;;;;;;;7.90;2.60;;;;;;;;;;4996789;28;20031;-27
2022/01/04 05:33:26;;;;;;;5.18;2.03;;;;;;;;;;4997079;28;20026;-26
2022/01/04 05:35:53;;;;;;;16.67;3.03;;;;;;;;;;4997139;28;20030;-27
2022/01/04 05:38:20;;;;;;;7.03;2.30;;;;;;;;;;4996743;28;20104;-27
2022/01/04 05:40:46;;;;;;;5.80;2.05;;;;;;;;;;4996631;28;20114;-27
2022/01/04 05:43:16;;;;;;;7.95;2.13;;;;;;;;;;4996387;28;20026;-27
2022/01/04 05:45:42;;;;;;;8.93;2.63;;;;;;;;;;4997215;28;20030;-27
2022/01/04 05:48:08;;;;;;;9.25;2.83;;;;;;;;;;4996622;28;20401;-27
2022/01/04 05:50:35;;;;;;;9.93;2.85;;;;;;;;;;4996429;28;20458;-27
2022/01/04 05:53:01;;;;;;;5.85;2.30;;;;;;;;;;4996234;28;20034;-27
2022/01/04 05:55:27;;;;;;;7.45;2.20;;;;;;;;;;4996220;28;20105;-27
2022/01/04 05:57:53;;;;;;;10.45;1.98;;;;;;;;;;4996303;28;20030;-27
2022/01/04 06:00:19;;;;;;;8.40;2.95;;;;;;;;;;4996124;28;20513;-27
2022/01/04 06:02:46;;;;;;;7.07;1.70;;;;;;;;;;4995826;28;20058;-27
2022/01/04 06:05:12;;;;;;;7.50;1.85;;;;;;;;;;4995046;28;20038;-27
2022/01/04 06:07:38;;;;;;;5.50;2.17;;;;;;;;;;4995981;28;20457;-27
2022/01/04 06:10:06;;;;;;;12.43;2.35;;;;;;;;;;4996473;28;20027;-27
2022/01/04 06:15:00;;;;;;;12.02;2.15;;;;;;;;;;4995850;28;20046;-26
2022/01/04 06:17:28;;;;;;;6.97;2.20;;;;;;;;;;4995986;28;20026;-26
2022/01/04 06:19:58;;;;;;;7.38;2.90;;;;;;;;;;4994826;28;20037;-26
2022/01/04 06:22:25;;;;;;;9.35;1.88;;;;;;;;;;4995683;28;20561;-26
2022/01/04 06:24:51;;;;;;;20.05;2.30;;;;;;;;;;4995744;28;20038;-26
2022/01/04 06:27:18;;;;;;;12.93;2.25;;;;;;;;;;4995722;28;20065;-26
2022/01/04 06:29:44;;;;;;;5.30;1.90;;;;;;;;;;4995601;28;20469;-26
2022/01/04 06:32:11;;;;;;;9.15;2.28;;;;;;;;;;4995805;28;20100;-26
2022/01/04 06:34:38;;;;;;;8.00;2.00;;;;;;;;;;4995484;28;20040;-26
2022/01/04 06:37:04;;;;;;;8.23;1.92;;;;;;;;;;4995730;28;20019;-26
2022/01/04 06:39:31;;;;;;;15.00;2.53;;;;;;;;;;4995396;28;20045;-26
2022/01/04 06:41:57;;;;;;;6.18;2.05;;;;;;;;;;4995323;28;20030;-26
2022/01/04 06:44:23;;;;;;;10.95;2.60;;;;;;;;;;4995439;28;20026;-26
2022/01/04 06:46:49;;;;;;;13.40;2.30;;;;;;;;;;4995403;28;20450;-26
2022/01/04 06:49:16;;;;;;;13.73;2.55;;;;;;;;;;4995253;28;20045;-26
2022/01/04 06:51:44;;;;;;;12.55;2.63;;;;;;;;;;4995330;28;20046;-26
2022/01/04 06:54:10;;;;;;;25.35;5.15;;;;;;;;;;4995353;28;20030;-26
2022/01/04 06:56:37;;;;;;;8.18;2.30;;;;;;;;;;4994355;28;20453;-26
2022/01/04 06:59:04;;;;;;;17.08;2.88;;;;;;;;;;4995381;28;20101;-26
2022/01/04 07:01:31;;;;;;;15.35;2.80;;;;;;;;;;4994932;28;20031;-26
2022/01/04 07:03:57;;;;;;;16.40;2.95;;;;;;;;;;4994802;28;20050;-26
2022/01/04 07:06:23;;;;;;;6.82;2.95;;;;;;;;;;4994956;28;20030;-26
2022/01/04 07:08:49;;;;;;;12.18;2.50;;;;;;;;;;4995026;28;20030;-26
2022/01/04 07:11:16;;;;;;;16.92;3.22;;;;;;;;;;4994971;28;20041;-26
2022/01/04 07:13:42;;;;;;;8.35;2.42;;;;;;;;;;4995108;28;20118;-26
2022/01/04 07:16:09;;;;;;;12.38;2.28;;;;;;;;;;4994790;28;20034;-26
2022/01/04 07:18:35;;;;;;;7.95;2.47;;;;;;;;;;4994886;28;20026;-26
2022/01/04 07:21:01;;;;;;;14.10;2.55;;;;;;;;;;4994813;28;20034;-26
2022/01/04 07:23:28;;;;;;;10.93;2.38;;;;;;;;;;4994600;28;20061;-26
2022/01/04 07:25:54;;;;;;;7.53;2.35;;;;;;;;;;4994840;28;20369;-26
2022/01/04 07:28:21;;;;;;;16.70;2.30;;;;;;;;;;4995096;28;20034;-26
2022/01/04 07:30:47;;;;;;;16.58;2.92;;;;;;;;;;4994772;28;20041;-26
2022/01/04 07:33:15;;;;;;;14.48;3.70;;;;;;;;;;4994684;28;20109;-26
2022/01/04 07:35:41;;;;;;;19.98;4.03;;;;;;;;;;4994668;28;20027;-26
2022/01/04 07:38:07;;;;;;;13.52;3.35;;;;;;;;;;4994886;28;20030;-26
2022/01/04 07:40:34;;;;;;;10.13;3.30;;;;;;;;;;4994649;28;20089;-26
2022/01/04 07:43:00;;;;;;;8.68;3.00;;;;;;;;;;4994696;28;20049;-26
2022/01/04 07:45:28;;;;;;;8.13;2.10;;;;;;;;;;4994918;28;20022;-26
2022/01/04 07:47:54;;;;;;;14.02;2.33;;;;;;;;;;4994640;28;20106;-26
2022/01/04 07:50:21;;;;;;;15.77;2.38;;;;;;;;;;4994841;28;20085;-26
2022/01/04 07:52:47;;;;;;;20.42;3.20;;;;;;;;;;4994706;28;20105;-26
2022/01/04 07:55:13;;;;;;;20.15;4.05;;;;;;;;;;4994437;28;20022;-26
2022/01/04 07:57:41;;;;;;;14.57;4.07;;;;;;;;;;4994789;28;20022;-26
2022/01/04 08:00:08;;;;;;;15.23;3.47;;;;;;;;;;4994544;28;20030;-27
2022/01/04 08:02:35;;;;;;;17.85;2.42;;;;;;;;;;4994643;28;20081;-27
2022/01/04 08:05:01;;;;;;;10.30;2.17;;;;;;;;;;4994615;28;20041;-26
2022/01/04 08:07:27;;;;;;;9.32;2.20;;;;;;;;;;4994867;28;20339;-27
2022/01/04 08:09:56;;;;;;;10.13;2.38;;;;;;;;;;4994598;28;20033;-27
2022/01/04 08:12:22;;;;;;;16.40;2.65;;;;;;;;;;4994430;28;20044;-27
2022/01/04 08:14:49;;;;;;;13.93;2.70;;;;;;;;;;4995554;28;20342;-27
2022/01/04 08:17:15;;;;;;;11.15;2.22;;;;;;;;;;4994497;28;20377;-26
2022/01/04 08:19:41;;;;;;;22.92;5.68;;;;;;;;;;4994525;28;20030;-25
2022/01/04 08:22:08;;;;;;;20.05;5.15;;;;;;;;;;4994691;28;20034;-27
2022/01/04 08:24:34;;;;;;;16.83;3.38;;;;;;;;;;4994463;28;20041;-27
2022/01/04 08:27:00;;;;;;;10.00;2.55;;;;;;;;;;4994342;28;20408;-27
2022/01/04 08:29:26;;;;;;;10.50;2.45;;;;;;;;;;4994287;28;20038;-27
2022/01/04 08:31:53;;;;;;;21.63;2.85;;;;;;;;;;4994246;28;20045;-27
2022/01/04 08:34:19;;;;;;;15.10;2.83;;;;;;;;;;4994642;28;20026;-27
2022/01/04 08:36:45;;;;;;;17.63;3.80;;;;;;;;;;4997695;28;20018;-27
2022/01/04 08:39:14;;;;;;;15.95;3.00;;;;;;;;;;4997669;28;20073;-27
2022/01/04 08:41:50;;;;;;;26.48;3.58;;;;;;;;;;4997722;28;20365;-27
2022/01/04 08:44:16;;;;;;;7.95;2.75;;;;;;;;;;4997525;28;20030;-27
2022/01/04 08:46:42;;;;;;;12.63;2.22;;;;;;;;;;4997478;28;20025;-27
2022/01/04 08:49:08;;;;;;;12.45;2.17;;;;;;;;;;4997736;28;20019;-26
2022/01/04 08:51:38;;;;;;;22.35;4.25;;;;;;;;;;4997427;28;20092;-27
2022/01/04 08:54:05;;;;;;;21.27;3.13;;;;;;;;;;4997279;28;20026;-26
2022/01/04 08:56:31;;;;;;;17.17;2.70;;;;;;;;;;4997280;28;20432;-27
2022/01/04 08:58:58;;;;;;;12.55;3.08;;;;;;;;;;4997732;28;20365;-27
2022/01/04 09:01:24;;;;;;;14.60;2.80;;;;;;;;;;4997655;28;20029;-26
2022/01/04 09:03:50;;;;;;;19.83;2.90;;;;;;;;;;4997226;28;20367;-27
2022/01/04 09:06:19;;;;;;;22.88;4.15;;;;;;;;;;4997210;28;20053;-27
2022/01/04 09:08:46;;;;;;;19.75;2.95;;;;;;;;;;4997466;28;20058;-27
2022/01/04 09:11:12;;;;;;;23.45;4.32;;;;;;;;;;4997097;28;20045;-27
2022/01/04 09:13:42;;;;;;;14.00;3.03;;;;;;;;;;4996980;28;20080;-26
2022/01/04 09:18:49;;;;;;;16.23;4.15;;;;;;;;;;4997071;28;20062;-27
2022/01/04 09:21:34;;;;;;;14.82;3.05;;;;;;;;;;4997012;28;20053;-27
2022/01/04 09:24:00;;;;;;;28.13;5.32;;;;;;;;;;4996821;28;20034;-27
2022/01/04 09:26:27;;;;;;;19.48;3.50;;;;;;;;;;4995962;28;20061;-26
2022/01/04 09:28:54;;;;;;;19.70;2.75;;;;;;;;;;4995792;28;20026;-26
2022/01/04 09:31:21;;;;;;;20.63;2.97;;;;;;;;;;4997497;28;20034;-27
2022/01/04 09:33:47;;;;;;;22.05;3.13;;;;;;;;;;4996715;28;20507;-27
2022/01/04 09:36:13;;;;;;;27.73;3.60;;;;;;;;;;4997094;28;20042;-27
2022/01/04 09:38:40;;;;;;;19.35;3.13;;;;;;;;;;4996826;28;20026;-27
2022/01/04 09:41:06;;;;;;;20.25;3.13;;;;;;;;;;4996628;28;20355;-26
2022/01/04 09:43:32;;;;;;;15.77;3.50;;;;;;;;;;4996442;28;20027;-27
2022/01/04 09:46:00;;;;;;;19.67;3.85;;;;;;;;;;4995694;28;20034;-27
2022/01/04 09:48:26;;;;;;;14.35;2.63;;;;;;;;;;4996621;28;20030;-27
2022/01/04 09:50:54;;;;;;;19.38;3.60;;;;;;;;;;4996827;28;20026;-27
2022/01/04 09:53:20;;;;;;;24.60;3.83;;;;;;;;;;4996170;28;20394;-27
2022/01/04 09:55:50;;;;;;;15.07;2.22;;;;;;;;;;4996436;28;20045;-27
2022/01/04 09:58:21;;;;;;;11.60;2.75;;;;;;;;;;4996538;28;20097;-27
2022/01/04 10:00:48;;;;;;;12.57;2.90;;;;;;;;;;4996238;28;20109;-27
2022/01/04 10:03:21;;;;;;;17.10;4.63;;;;;;;;;;4996241;28;20121;-27
2022/01/04 10:05:48;;;;;;;19.85;3.08;;;;;;;;;;4996870;28;20401;-26
2022/01/04 10:08:29;;;;;;;15.70;3.20;;;;;;;;;;4996059;28;20038;-27
2022/01/04 10:11:16;;;;;;;16.77;3.55;;;;;;;;;;4994940;28;20038;-26
2022/01/04 10:14:40;;;;;;;16.38;4.38;;;;;;;;;;4994705;28;20040;-26
2022/01/04 10:17:07;;;;;;;26.83;4.20;;;;;;;;;;4986507;28;20038;-27
2022/01/04 10:19:38;;;;;;;23.23;4.45;;;;;;;;;;4996128;28;20053;-26
2022/01/04 10:22:04;;;;;;;;;;;;;;;;;;4996161;28;20049;-26
2022/01/04 10:24:31;;;;;;;13.63;2.67;;;;;;;;;;4995809;28;20000;-26
2022/01/04 10:26:57;;;;;;;17.38;2.72;;;;;;;;;;4995888;28;20041;-26
2022/01/04 10:29:23;;;;;;;19.55;2.90;;;;;;;;;;4995625;28;20026;-26
2022/01/04 10:31:51;;;;;;;15.02;2.90;;;;;;;;;;4996025;28;20450;-27
2022/01/04 10:34:17;;;;;;;26.98;3.05;;;;;;;;;;4995491;28;20117;-26
2022/01/04 10:36:46;;;;;;;16.75;2.67;;;;;;;;;;4995430;28;20023;-26
2022/01/04 10:39:12;;;;;;;15.82;3.22;;;;;;;;;;4995423;28;20030;-26
2022/01/04 10:41:38;;;;;;;18.80;3.17;;;;;;;;;;4995937;28;20429;-26
2022/01/04 10:44:06;;;;;;;14.43;3.25;;;;;;;;;;4995303;28;20037;-26
2022/01/04 10:46:34;;;;;;;20.30;2.65;;;;;;;;;;4995656;28;20033;-26
2022/01/04 10:49:01;;;;;;;23.73;3.28;;;;;;;;;;4995261;28;20093;-26
2022/01/04 10:51:30;;;;;;;17.17;3.85;;;;;;;;;;4995812;28;20026;-26
2022/01/04 10:54:00;;;;;;;15.85;3.20;;;;;;;;;;4995417;28;20052;-26
2022/01/04 10:56:34;;;;;;;17.63;4.60;;;;;;;;;;4995117;28;20026;-26
2022/01/04 10:59:01;;;;;;;19.55;3.15;;;;;;;;;;4994694;28;20093;-26
2022/01/04 11:01:29;;;;;;;18.17;2.45;;;;;;;;;;4995612;28;20024;-26
2022/01/04 11:03:56;;;;;;;13.45;2.72;;;;;;;;;;4994895;28;20042;-26
2022/01/04 11:06:35;;;;;;;15.73;2.85;;;;;;;;;;4995374;28;20373;-26
2022/01/04 11:09:01;;;;;;;14.52;2.45;;;;;;;;;;4995412;28;20026;-26
2022/01/04 11:11:28;;;;;;;22.63;3.40;;;;;;;;;;4995093;28;20037;-26
2022/01/04 11:13:54;;;;;;;18.15;2.70;;;;;;;;;;4995059;28;20368;-26
2022/01/04 11:16:24;;;;;;;19.58;3.05;;;;;;;;;;4994865;28;20097;-27
2022/01/04 11:18:52;;;;;;;20.70;4.75;;;;;;;;;;4995425;28;20444;-26
2022/01/04 11:21:20;;;;;;;17.50;2.90;;;;;;;;;;4994804;28;20026;-27
2022/01/04 11:23:47;;;;;;;12.68;3.35;;;;;;;;;;4994804;28;20018;-26
2022/01/04 11:26:14;;;;;;;10.10;3.33;;;;;;;;;;4994747;28;20053;-26
2022/01/04 11:28:45;;;;;;;26.38;3.65;;;;;;;;;;4994993;28;20118;-26
2022/01/04 11:31:30;;;;;;;18.13;4.50;;;;;;;;;;4995249;28;20030;-27
2022/01/04 11:34:03;;;;;;;13.68;3.08;;;;;;;;;;4994408;28;20030;-26
2022/01/04 11:36:30;;;;;;;27.85;3.20;;;;;;;;;;4994854;28;20428;-26
2022/01/04 11:38:56;;;;;;;21.15;3.50;;;;;;;;;;4995221;28;20030;-26
2022/01/04 11:41:44;;;;;;;29.08;4.75;;;;;;;;;;4994655;28;20026;-26
2022/01/04 11:44:19;;;;;;;27.20;3.95;;;;;;;;;;4994715;28;20088;-27
2022/01/04 11:46:58;;;;;;;26.42;4.30;;;;;;;;;;4994698;28;20458;-26
2022/01/04 11:49:24;;;;;;;13.38;2.90;;;;;;;;;;4994802;28;20041;-26
2022/01/04 11:51:50;;;;;;;15.15;3.05;;;;;;;;;;4994788;28;20033;-26
2022/01/04 11:54:16;;;;;;;19.05;3.70;;;;;;;;;;4994886;28;20030;-27
2022/01/04 11:56:56;;;;;;;19.25;3.95;;;;;;;;;;4994705;28;20038;-26
2022/01/04 11:59:27;;;;;;;17.75;3.33;;;;;;;;;;4994503;28;20067;-26
2022/01/04 12:01:54;;;;;;;15.55;2.55;;;;;;;;;;4995003;28;20026;-27
2022/01/04 12:04:48;;;;;;;22.83;3.17;;;;;;;;;;4994418;28;20070;-26
2022/01/04 12:07:32;;;;;;;19.20;3.33;;;;;;;;;;4994863;28;20034;-26
2022/01/04 12:10:17;;;;;;;27.33;5.95;;;;;;;;;;4996205;28;20034;-26
2022/01/04 12:13:04;;;;;;;16.50;3.38;;;;;;;;;;4998053;28;20030;-26
2022/01/04 12:15:36;;;;;;;22.83;4.32;;;;;;;;;;4998001;28;20074;-26
2022/01/04 12:18:20;;;;;;;21.02;3.60;;;;;;;;;;4997998;28;20031;-26
2022/01/04 12:20:47;;;;;;;14.73;2.85;;;;;;;;;;4998351;28;20050;-26
2022/01/04 12:23:29;;;;;;;17.20;2.88;;;;;;;;;;4997866;28;20046;-26
2022/01/04 12:26:05;;;;;;;27.52;4.22;;;;;;;;;;4997868;28;20476;-26
2022/01/04 12:28:31;;;;;;;16.02;3.35;;;;;;;;;;4997748;28;20026;-26
2022/01/04 12:33:49;;;;;;;11.45;2.70;;;;;;;;;;4997696;28;20030;-26
2022/01/04 12:36:26;;;;;;;18.08;3.63;;;;;;;;;;4996616;28;20433;-26
2022/01/04 12:38:53;;;;;;;16.10;4.43;;;;;;;;;;4997649;28;20139;-26
2022/01/04 12:41:19;;;;;;;29.17;3.80;;;;;;;;;;4997777;28;20026;-26
2022/01/04 12:43:47;;;;;;;30.15;3.70;;;;;;;;;;4997451;28;20022;-26
2022/01/04 12:46:14;;;;;;;18.63;4.32;;;;;;;;;;4997816;28;20426;-26
2022/01/04 12:48:55;;;;;;;18.83;4.40;;;;;;;;;;4997545;28;20054;-26
2022/01/04 12:51:28;;;;;;;24.48;3.53;;;;;;;;;;4997472;28;20117;-26
2022/01/04 12:53:58;;;;;;;20.65;3.78;;;;;;;;;;4997505;28;20041;-26
2022/01/04 12:56:25;;;;;;;17.48;3.95;;;;;;;;;;4998052;28;20023;-26
2022/01/04 12:58:51;;;;;;;34.38;4.43;;;;;;;;;;4997430;28;20031;-26
2022/01/04 13:01:28;;;;;;;30.60;4.90;;;;;;;;;;4997445;28;20027;-26
2022/01/04 13:03:55;;;;;;;21.00;3.08;;;;;;;;;;4997138;28;20050;-26
2022/01/04 13:06:21;;;;;;;27.83;3.83;;;;;;;;;;4997285;28;20030;-26
2022/01/04 13:08:52;;;;;;;21.25;3.30;;;;;;;;;;4997199;28;20546;-26
2022/01/04 13:11:18;;;;;;;23.42;4.30;;;;;;;;;;4997543;28;20096;-26
2022/01/04 13:13:53;;;;;;;15.75;3.08;;;;;;;;;;4996085;28;20073;-26
2022/01/04 13:16:22;;;;;;;22.35;3.40;;;;;;;;;;4997389;28;20026;-26
2022/01/04 13:18:49;;;;;;;15.30;3.38;;;;;;;;;;4997337;28;20036;-26
2022/01/04 13:21:16;;;;;;;21.02;3.13;;;;;;;;;;4996614;28;20106;-26
2022/01/04 13:23:43;;;;;;;16.98;4.38;;;;;;;;;;4997203;28;20053;-26
2022/01/04 13:26:11;;;;;;;21.80;3.70;;;;;;;;;;4996087;28;20110;-26
2022/01/04 13:28:37;;;;;;;21.05;5.68;;;;;;;;;;4997187;28;20338;-26
2022/01/04 13:31:04;;;;;;;29.25;6.55;;;;;;;;;;4996997;28;20417;-26
2022/01/04 13:33:32;;;;;;;18.80;3.72;;;;;;;;;;4996952;28;20102;-26
2022/01/04 13:35:59;;;;;;;16.30;3.22;;;;;;;;;;4996614;28;20030;-26
2022/01/04 13:38:27;;;;;;;26.10;4.55;;;;;;;;;;4996934;28;20516;-26
2022/01/04 13:40:55;;;;;;;22.40;4.13;;;;;;;;;;4996654;28;20129;-26
2022/01/04 13:43:29;;;;;;;31.17;5.72;;;;;;;;;;4996475;28;20030;-27
2022/01/04 13:46:00;;;;;;;37.75;4.90;;;;;;;;;;4996454;28;20035;-25
2022/01/04 13:48:44;;;;;;;25.85;4.40;;;;;;;;;;4996715;28;20397;-27
2022/01/04 13:51:15;;;;;;;25.52;4.68;;;;;;;;;;4996360;28;20047;-27
2022/01/04 13:53:57;;;;;;;25.80;3.80;;;;;;;;;;4996408;28;20046;-27
2022/01/04 13:56:30;;;;;;;33.70;4.78;;;;;;;;;;4997026;28;20513;-25
2022/01/04 13:58:58;;;;;;;24.92;4.28;;;;;;;;;;4996388;28;20030;-25
2022/01/04 14:01:24;;;;;;;21.63;4.50;;;;;;;;;;4996118;28;20035;-25
2022/01/04 14:04:09;;;;;;;19.13;4.85;;;;;;;;;;4996512;28;20046;-25
2022/01/04 14:06:55;;;;;;;24.92;3.78;;;;;;;;;;4996298;28;20039;-27
2022/01/04 14:09:35;;;;;;;21.40;3.22;;;;;;;;;;4996308;28;20101;-25
2022/01/04 14:12:02;;;;;;;30.55;6.57;;;;;;;;;;4996286;28;20057;-25
2022/01/04 14:14:29;;;;;;;19.83;3.95;;;;;;;;;;4995846;28;20062;-27
2022/01/04 14:17:06;;;;;;;31.92;4.88;;;;;;;;;;4996205;28;20022;-27
2022/01/04 14:19:34;;;;;;;39.13;6.20;;;;;;;;;;4996204;28;20019;-25
2022/01/04 14:22:04;;;;;;;45.70;4.47;;;;;;;;;;4995936;28;20105;-25
2022/01/04 14:24:30;;;;;;;31.75;4.10;;;;;;;;;;4995844;28;20092;-25
2022/01/04 14:26:57;;;;;;;36.53;4.57;;;;;;;;;;4995725;28;20091;-25
2022/01/04 14:29:34;;;;;;;22.88;4.65;;;;;;;;;;4995919;28;20034;-25
2022/01/04 14:32:04;;;;;;;34.08;5.47;;;;;;;;;;4995282;28;20022;-25
2022/01/04 14:34:31;;;;;;;22.95;4.63;;;;;;;;;;4995620;28;20026;-25
2022/01/04 14:37:00;;;;;;;30.75;3.42;;;;;;;;;;4995609;28;20049;-25
2022/01/04 14:39:28;;;;;;;40.35;5.03;;;;;;;;;;4995785;28;20022;-25
2022/01/04 14:41:58;;;;;;;42.70;3.97;;;;;;;;;;4995458;28;20034;-26
2022/01/04 14:44:25;;;;;;;40.28;4.78;;;;;;;;;;4996516;28;20177;-26
2022/01/04 14:46:51;;;;;;;24.98;5.50;;;;;;;;;;4995455;28;20018;-26
2022/01/04 14:49:18;;;;;;;38.83;4.70;;;;;;;;;;4995852;28;20060;-26